SASJ/JUJ METAR and TAF weather

Enter ICAO airport designator
Station Type Date Time Source
SASJ METAR 2020/01/21 18:00 UTC NOAA

SASJ 211800Z 18006KT CAVOK 27/20 Q1014


Station Type Date Time Source
SASJ Decoded METAR 2020/01/21 18:00 UTC NOAA

Jujuy Aerodrome, Argentina (SASJ) 24-23S 065-05W 905M
Jan 21, 2020 - 01:00 PM EST / 2020.01.21 1800 UTC
Wind: from the S (180 degrees) at 7 MPH (6 KT):0
Visibility: greater than 7 mile(s):0
Temperature: 80 F (27 C)
Dew Point: 68 F (20 C)
Relative Humidity: 65%
Pressure (altimeter): 29.94 in. Hg (1014 hPa)
ob: SASJ 211800Z 18006KT CAVOK 27/20 Q1014
cycle: 18

Station Type Date Time Source
SASJ TAF 2020/01/21 18:45 UTC NOAA

TAF SASJ 211700Z 2118/2218 VRB03KT 9999 SCT030 FEW040CB TX30/2218Z TN21/2210Z
BECMG 2120/2123 7000 TSRA BKN030 FEW040CB
BECMG 2200/2203 29005KT 9999 BKN025
BECMG 2011/2013 20010KT 9999 SCT030

Example: see airport list